createdAt,value
2019-05-10T00:04:13.537Z,4.15
2019-05-10T00:09:05.729Z,4.15
2019-05-10T00:14:09.041Z,4.10
2019-05-10T00:19:02.190Z,3.40
2019-05-10T00:23:54.479Z,3.90
2019-05-10T00:28:47.232Z,4.20
2019-05-10T00:33:39.822Z,5.10
2019-05-10T00:38:31.898Z,4.92
2019-05-10T00:43:24.714Z,4.42
2019-05-10T00:48:17.350Z,3.80
2019-05-10T00:53:09.758Z,4.28
2019-05-10T00:58:02.019Z,4.08
2019-05-10T01:02:54.809Z,4.25
2019-05-10T01:07:47.389Z,4.15
2019-05-10T01:12:39.404Z,4.37
2019-05-10T01:17:31.719Z,4.70
2019-05-10T01:22:24.155Z,4.50
2019-05-10T01:27:16.734Z,4.42
2019-05-10T01:32:09.208Z,4.33
2019-05-10T01:37:01.662Z,3.90
2019-05-10T01:41:54.210Z,4.40
2019-05-10T01:46:46.588Z,4.42
2019-05-10T01:51:39.039Z,7.27
2019-05-10T01:56:31.528Z,7.27
2019-05-10T02:01:23.808Z,6.87
2019-05-10T02:06:16.224Z,5.45
2019-05-10T02:11:08.702Z,5.47
2019-05-10T02:16:01.001Z,11.30
2019-05-10T02:20:53.170Z,5.50
2019-05-10T02:25:45.558Z,5.87
2019-05-10T02:30:38.360Z,5.33
2019-05-10T02:35:30.860Z,5.50
2019-05-10T02:40:22.959Z,6.30
2019-05-10T02:45:16.427Z,6.27
2019-05-10T02:50:08.697Z,7.17
2019-05-10T02:55:01.351Z,6.90
2019-05-10T02:59:55.814Z,8.90
2019-05-10T03:04:48.573Z,7.90
2019-05-10T03:09:40.857Z,13.18
2019-05-10T03:14:36.468Z,9.50
2019-05-10T03:19:32.137Z,8.60
2019-05-10T03:24:27.768Z,8.33
2019-05-10T03:29:18.336Z,8.87
2019-05-10T03:34:10.963Z,9.23
2019-05-10T03:39:05.145Z,10.10
2019-05-10T03:43:58.111Z,10.47
2019-05-10T03:48:50.670Z,10.27
2019-05-10T03:53:43.114Z,10.37
2019-05-10T03:58:35.192Z,9.53
2019-05-10T04:03:27.864Z,11.87
2019-05-10T04:08:20.271Z,9.80
2019-05-10T04:13:12.266Z,9.70
2019-05-10T04:18:04.689Z,11.60
2019-05-10T04:22:57.539Z,9.37
2019-05-10T04:27:50.363Z,9.83
2019-05-10T04:32:43.018Z,7.67
2019-05-10T04:37:35.582Z,7.40
2019-05-10T04:42:28.119Z,9.00
2019-05-10T04:47:22.211Z,10.10
2019-05-10T04:52:14.914Z,7.53
2019-05-10T04:57:07.713Z,8.23
2019-05-10T05:02:01.101Z,8.30
2019-05-10T05:06:53.446Z,9.03
2019-05-10T05:11:45.899Z,8.77
2019-05-10T05:16:38.481Z,9.17
2019-05-10T05:21:31.159Z,9.95
2019-05-10T05:26:23.654Z,9.20
2019-05-10T05:31:16.284Z,8.43
2019-05-10T05:36:08.409Z,10.00
2019-05-10T05:41:01.084Z,10.40
2019-05-10T05:45:53.656Z,10.18
2019-05-10T05:50:46.318Z,11.57
2019-05-10T05:55:38.707Z,10.23
2019-05-10T06:00:31.289Z,9.28
2019-05-10T06:05:33.553Z,10.60
2019-05-10T06:10:19.812Z,10.23
2019-05-10T06:15:12.282Z,10.03
2019-05-10T06:20:08.988Z,9.30
2019-05-10T06:25:01.528Z,10.38
2019-05-10T06:29:53.791Z,10.98
2019-05-10T06:34:46.330Z,9.98
2019-05-10T06:39:38.655Z,8.63
2019-05-10T06:44:33.105Z,8.85
2019-05-10T06:49:25.955Z,7.70
2019-05-10T06:54:18.594Z,7.60
2019-05-10T06:59:13.726Z,6.80
2019-05-10T07:04:05.394Z,5.60
2019-05-10T07:08:59.185Z,5.22
2019-05-10T07:13:53.101Z,4.92
2019-05-10T07:18:45.011Z,4.65
2019-05-10T07:23:39.017Z,5.10
2019-05-10T07:28:31.981Z,4.97
2019-05-10T07:33:24.522Z,5.30
2019-05-10T07:38:16.794Z,4.70
2019-05-10T07:43:09.192Z,5.15
2019-05-10T07:48:02.361Z,5.25
2019-05-10T07:52:55.626Z,5.45
2019-05-10T07:57:48.431Z,6.42
2019-05-10T08:02:44.442Z,7.90
2019-05-10T08:07:35.510Z,6.03
2019-05-10T08:12:28.897Z,4.78
2019-05-10T08:17:21.613Z,5.58
2019-05-10T08:22:14.923Z,4.87
2019-05-10T08:27:12.388Z,4.58
2019-05-10T08:32:02.983Z,4.70
2019-05-10T08:36:55.350Z,4.47
2019-05-10T08:42:01.377Z,3.90
2019-05-10T08:46:44.486Z,4.05
2019-05-10T08:51:44.189Z,4.05
2019-05-10T08:56:33.284Z,4.20
2019-05-10T09:01:30.121Z,4.17
2019-05-10T09:06:19.162Z,3.95
2019-05-10T09:11:11.656Z,4.10
2019-05-10T09:16:04.130Z,4.00
2019-05-10T09:21:02.616Z,3.25
2019-05-10T09:25:51.920Z,3.47
2019-05-10T09:30:56.902Z,3.85
2019-05-10T09:35:43.927Z,4.20
2019-05-10T09:40:33.117Z,3.83
2019-05-10T09:45:25.541Z,4.17
2019-05-10T09:50:18.323Z,4.08
2019-05-10T09:55:14.733Z,3.83
2019-05-10T10:00:07.513Z,5.45
2019-05-10T10:04:59.665Z,3.20
2019-05-10T10:09:51.561Z,2.95
2019-05-10T10:14:47.120Z,2.40
2019-05-10T10:19:40.717Z,2.90
2019-05-10T10:24:32.330Z,3.30
2019-05-10T10:29:28.878Z,3.50
2019-05-10T10:34:18.901Z,2.90
2019-05-10T10:39:11.429Z,2.77
2019-05-10T10:44:03.791Z,2.30
2019-05-10T10:48:56.444Z,2.33
2019-05-10T10:53:49.063Z,1.72
2019-05-10T10:58:41.814Z,1.92
2019-05-10T11:03:34.250Z,1.62
2019-05-10T11:08:26.683Z,1.98
2019-05-10T11:13:36.935Z,2.00
2019-05-10T11:18:12.909Z,2.42
2019-05-10T11:23:05.362Z,2.30
2019-05-10T11:27:59.249Z,3.50
2019-05-10T11:32:51.472Z,3.20
2019-05-10T11:37:45.651Z,2.62
2019-05-10T11:42:43.767Z,2.77
2019-05-10T11:47:32.074Z,2.20
2019-05-10T11:52:29.259Z,2.60
2019-05-10T11:57:21.751Z,2.22
2019-05-10T12:07:12.035Z,2.40
2019-05-10T12:12:03.404Z,2.50
2019-05-10T12:16:54.901Z,2.20
2019-05-10T12:21:47.503Z,2.50
2019-05-10T12:26:17.620Z,2.85
2019-05-10T12:31:34.772Z,2.60
2019-05-10T12:36:27.763Z,2.50
2019-05-10T12:41:23.172Z,3.00
2019-05-10T12:46:14.776Z,3.10
2019-05-10T12:51:11.678Z,2.75
2019-05-10T12:56:01.260Z,2.50
2019-05-10T13:00:54.827Z,2.37
2019-05-10T13:05:52.402Z,1.98
2019-05-10T13:10:43.464Z,2.42
2019-05-10T13:15:35.404Z,2.08
2019-05-10T13:20:30.723Z,2.00
2019-05-10T13:25:22.287Z,2.02
2019-05-10T13:30:15.525Z,1.82
2019-05-10T13:35:10.061Z,2.42
2019-05-10T13:40:08.095Z,2.20
2019-05-10T13:44:58.423Z,1.72
2019-05-10T13:49:50.834Z,5.73
2019-05-10T13:54:43.415Z,2.10
2019-05-10T13:59:35.913Z,2.30
2019-05-10T14:04:28.383Z,2.10
2019-05-10T14:09:21.142Z,2.70
2019-05-10T14:14:14.551Z,1.70
2019-05-10T14:19:08.094Z,1.90
2019-05-10T14:24:00.488Z,1.90
2019-05-10T14:28:54.621Z,2.00
2019-05-10T14:34:14.100Z,2.10
2019-05-10T14:38:41.523Z,4.62
2019-05-10T14:43:34.341Z,3.35
2019-05-10T14:48:28.931Z,5.03
2019-05-10T14:53:25.726Z,2.72
2019-05-10T14:58:14.742Z,3.85
2019-05-10T15:03:07.038Z,4.40
2019-05-10T15:07:59.052Z,3.87
2019-05-10T15:12:51.824Z,5.95
2019-05-10T15:17:44.798Z,3.50
2019-05-10T15:22:37.025Z,3.20
2019-05-10T15:27:29.038Z,2.85
2019-05-10T15:32:21.424Z,2.70
2019-05-10T15:37:17.501Z,3.60
2019-05-10T15:42:15.290Z,5.10
2019-05-10T15:47:14.444Z,3.55
2019-05-10T15:52:16.675Z,7.50
2019-05-10T15:56:56.060Z,2.00
2019-05-10T16:01:48.766Z,4.15
2019-05-10T16:06:41.064Z,3.42
2019-05-10T16:11:33.591Z,2.00
2019-05-10T16:16:30.354Z,3.80
2019-05-10T16:21:20.039Z,2.80
2019-05-10T16:26:17.490Z,2.30
2019-05-10T16:31:07.527Z,1.80
2019-05-10T16:35:59.540Z,2.10
2019-05-10T16:40:58.604Z,4.05
2019-05-10T16:45:46.557Z,2.17
2019-05-10T16:50:38.881Z,3.47
2019-05-10T16:55:35.581Z,1.98
2019-05-10T17:00:26.386Z,2.47
2019-05-10T17:05:18.653Z,2.52
2019-05-10T17:10:11.654Z,1.80
2019-05-10T17:15:04.315Z,1.90
2019-05-10T17:19:58.729Z,1.85
2019-05-10T17:24:51.456Z,2.52
2019-05-10T17:29:44.479Z,2.65
2019-05-10T17:34:37.701Z,2.00
2019-05-10T17:39:31.994Z,2.40
2019-05-10T17:44:24.819Z,2.12
2019-05-10T17:49:18.646Z,3.45
2019-05-10T17:54:10.738Z,2.47
2019-05-10T17:59:05.912Z,2.05
2019-05-10T18:03:57.464Z,1.85
2019-05-10T18:08:50.058Z,2.10
2019-05-10T18:13:42.642Z,2.50
2019-05-10T18:18:35.181Z,3.25
2019-05-10T18:23:28.796Z,4.40
2019-05-10T18:28:21.893Z,5.28
2019-05-10T18:33:14.707Z,8.53
2019-05-10T18:38:07.192Z,8.13
2019-05-10T18:43:03.825Z,6.60
2019-05-10T18:47:53.956Z,5.25
2019-05-10T18:52:46.240Z,4.87
2019-05-10T18:57:38.564Z,3.92
2019-05-10T19:02:30.881Z,3.75
2019-05-10T19:07:23.255Z,3.10
2019-05-10T19:12:18.708Z,3.22
2019-05-10T19:17:11.010Z,17.12
2019-05-10T19:22:08.822Z,14.03
2019-05-10T19:27:01.431Z,35.63
2019-05-10T19:31:51.882Z,8.53
2019-05-10T19:36:44.103Z,6.10
2019-05-10T19:41:36.527Z,6.15
2019-05-10T19:46:30.065Z,5.45
2019-05-10T19:51:23.061Z,6.72
2019-05-10T19:56:15.642Z,6.33
2019-05-10T20:01:08.462Z,20.97
2019-05-10T20:06:01.168Z,6.12
2019-05-10T20:10:53.461Z,4.80
2019-05-10T20:15:46.134Z,5.90
2019-05-10T20:20:38.889Z,30.08
2019-05-10T20:25:31.204Z,12.00
2019-05-10T20:30:23.300Z,7.60
2019-05-10T20:35:15.913Z,4.70
2019-05-10T20:40:08.257Z,4.25
2019-05-10T20:45:07.570Z,6.90
2019-05-10T20:49:54.057Z,6.17
2019-05-10T20:54:46.269Z,6.58
2019-05-10T20:59:38.493Z,6.70
2019-05-10T21:04:30.962Z,7.15
2019-05-10T21:09:23.446Z,6.87
2019-05-10T21:14:15.764Z,6.72
2019-05-10T21:19:07.981Z,7.67
2019-05-10T21:24:00.360Z,7.78
2019-05-10T21:28:53.201Z,8.35
2019-05-10T21:33:45.762Z,7.92
2019-05-10T21:38:41.607Z,9.40
2019-05-10T21:43:32.361Z,8.15
2019-05-10T21:48:24.886Z,8.73
2019-05-10T21:53:17.527Z,10.88
2019-05-10T21:58:10.102Z,9.60
2019-05-10T22:03:02.168Z,8.83
2019-05-10T22:07:54.531Z,10.68
2019-05-10T22:12:47.934Z,10.87
2019-05-10T22:17:40.433Z,9.50
2019-05-10T22:22:33.253Z,9.30
2019-05-10T22:27:25.777Z,11.15
2019-05-10T22:32:18.262Z,11.08
2019-05-10T22:37:10.576Z,12.80
2019-05-10T22:42:03.402Z,12.85
2019-05-10T22:46:55.807Z,14.10
2019-05-10T22:51:48.470Z,13.88
2019-05-10T22:56:40.904Z,13.22
2019-05-10T23:01:33.633Z,10.75
2019-05-10T23:06:25.801Z,11.08
2019-05-10T23:11:18.181Z,10.10
2019-05-10T23:16:10.493Z,9.50
2019-05-10T23:21:02.767Z,10.35
2019-05-10T23:25:55.399Z,9.28
2019-05-10T23:30:47.963Z,10.35
2019-05-10T23:35:40.093Z,12.23
2019-05-10T23:40:32.308Z,10.53
2019-05-10T23:45:24.661Z,13.20
2019-05-10T23:50:17.064Z,12.37
2019-05-10T23:55:09.921Z,10.43
